Time;durP1;ratioP1;P1;durP2;ratioP2;P2;SDS_P1;SDS_P2;PMS_P1;PMS_P2;Temp;Humidity;BMP_temperature;BMP_pressure;BME280_temperature;BME280_humidity;BME280_pressure;Samples;Min_cycle;Max_cycle;Signal;HPM_P1;HPM_P2
2022/01/28 00:00:59;;;;;;;0.60;0.57;;;6.50;99.90;;;;;;5073860;28;20418;-73
2022/01/28 00:03:25;;;;;;;0.83;0.83;;;6.50;99.90;;;;;;5074911;28;20427;-73
2022/01/28 00:05:51;;;;;;;0.60;0.50;;;6.50;99.90;;;;;;5074434;28;20876;-73
2022/01/28 00:08:16;;;;;;;0.60;0.50;;;6.50;99.90;;;;;;5076005;28;20233;-73
2022/01/28 00:10:42;;;;;;;0.60;0.50;;;6.50;99.90;;;;;;5077410;28;20178;-73
2022/01/28 00:13:23;;;;;;;0.60;0.50;;;6.50;99.90;;;;;;5074330;28;20173;-73
2022/01/28 00:18:45;;;;;;;0.60;0.50;;;6.50;99.90;;;;;;5074548;28;20420;-72
2022/01/28 00:40:19;;;;;;;2.10;2.00;;;6.20;99.90;;;;;;5074070;28;20472;-72
2022/01/28 00:42:45;;;;;;;0.60;0.50;;;6.20;99.90;;;;;;5068891;28;20461;-73
2022/01/28 00:45:11;;;;;;;0.60;0.50;;;6.20;99.90;;;;;;5071370;28;20210;-72
2022/01/28 00:47:36;;;;;;;0.60;0.50;;;6.10;99.90;;;;;;5053543;28;20611;-72
2022/01/28 00:50:02;;;;;;;0.60;0.50;;;6.10;99.90;;;;;;5054412;28;20174;-72
2022/01/28 00:52:28;;;;;;;0.60;0.60;;;6.10;99.90;;;;;;5086777;28;20575;-72
2022/01/28 00:54:53;;;;;;;0.60;0.60;;;6.10;99.90;;;;;;5073680;28;20425;-72
2022/01/28 00:57:19;;;;;;;0.70;0.70;;;6.10;99.90;;;;;;5073543;28;20174;-72
2022/01/28 00:59:44;;;;;;;0.60;0.57;;;6.10;99.90;;;;;;5073671;28;20248;-72
2022/01/28 01:02:10;;;;;;;0.60;0.60;;;6.20;99.90;;;;;;5071355;28;20183;-72
2022/01/28 01:04:35;;;;;;;0.60;0.50;;;6.20;99.90;;;;;;5053818;28;20195;-72
2022/01/28 01:07:01;;;;;;;0.60;0.50;;;6.10;99.90;;;;;;5053436;28;20175;-72
2022/01/28 01:09:27;;;;;;;0.97;0.97;;;6.10;99.90;;;;;;5066601;28;20257;-73
2022/01/28 01:11:53;;;;;;;0.60;0.60;;;6.00;99.90;;;;;;5071697;28;20204;-73
2022/01/28 01:14:18;;;;;;;0.60;0.50;;;6.00;99.90;;;;;;5071993;28;20174;-72
2022/01/28 01:17:19;;;;;;;0.60;0.60;;;5.90;99.90;;;;;;5072092;28;20185;-72
2022/01/28 01:19:35;;;;;;;0.60;0.60;;;5.80;99.90;;;;;;5072805;28;20526;-73
2022/01/28 01:22:01;;;;;;;0.60;0.60;;;5.80;99.90;;;;;;5069557;28;20421;-72
2022/01/28 01:24:34;;;;;;;0.60;0.60;;;5.70;99.90;;;;;;5072851;28;20445;-72
2022/01/28 01:27:00;;;;;;;0.60;0.60;;;5.60;99.90;;;;;;5071947;28;20457;-72
2022/01/28 01:29:26;;;;;;;0.67;0.60;;;5.50;99.90;;;;;;5072985;28;20433;-72
2022/01/28 01:32:00;;;;;;;0.60;0.60;;;5.50;99.90;;;;;;5072758;28;20167;-73
2022/01/28 01:34:26;;;;;;;0.63;0.60;;;5.40;99.90;;;;;;5073247;28;20930;-72
2022/01/28 01:36:51;;;;;;;0.80;0.80;;;5.40;99.90;;;;;;5072823;28;20466;-72
2022/01/28 01:39:24;;;;;;;1.13;0.93;;;5.40;99.90;;;;;;5071184;28;20190;-72
2022/01/28 01:41:57;;;;;;;0.60;0.53;;;5.30;99.90;;;;;;5071152;28;20174;-73
2022/01/28 01:52:37;;;;;;;0.60;0.50;;;5.10;99.90;;;;;;5073128;28;20404;-73
2022/01/28 01:55:03;;;;;;;0.60;0.60;;;5.10;99.90;;;;;;5054109;28;20441;-73
2022/01/28 01:57:30;;;;;;;0.60;0.50;;;5.00;99.90;;;;;;5059205;28;20670;-73
2022/01/28 01:59:55;;;;;;;0.80;0.70;;;5.00;99.90;;;;;;5070240;28;20515;-73
2022/01/28 02:02:21;;;;;;;0.60;0.50;;;5.00;99.90;;;;;;5070992;28;20460;-72
2022/01/28 02:04:46;;;;;;;0.60;0.60;;;4.90;99.90;;;;;;5074673;28;20197;-72
2022/01/28 02:07:15;;;;;;;0.60;0.60;;;4.90;99.90;;;;;;5076210;28;20177;-73
2022/01/28 02:09:41;;;;;;;0.60;0.50;;;4.90;99.90;;;;;;5073141;28;20171;-73
2022/01/28 02:12:07;;;;;;;0.60;0.50;;;4.90;99.90;;;;;;5073815;28;20478;-73
2022/01/28 02:14:33;;;;;;;0.60;0.50;;;4.90;99.90;;;;;;5074338;28;20181;-72
2022/01/28 02:16:59;;;;;;;0.60;0.60;;;4.90;99.90;;;;;;5075161;28;20432;-72
2022/01/28 02:19:26;;;;;;;0.60;0.60;;;4.80;99.90;;;;;;5075533;28;20198;-72
2022/01/28 02:21:52;;;;;;;0.60;0.50;;;4.80;99.90;;;;;;5074980;28;20160;-72
2022/01/28 02:24:25;;;;;;;0.60;0.60;;;4.80;99.90;;;;;;5075848;28;20451;-72
2022/01/28 02:26:51;;;;;;;0.60;0.50;;;4.70;99.90;;;;;;5074284;28;20463;-73
2022/01/28 02:29:26;;;;;;;0.60;0.50;;;4.70;99.90;;;;;;5069790;28;20484;-72
2022/01/28 02:31:53;;;;;;;0.60;0.50;;;4.70;99.90;;;;;;5070426;28;20193;-73
2022/01/28 02:34:18;;;;;;;0.60;0.50;;;4.70;99.90;;;;;;5074178;28;20413;-72
2022/01/28 02:36:44;;;;;;;0.60;0.50;;;4.70;99.90;;;;;;5074132;28;20416;-72
2022/01/28 02:39:11;;;;;;;1.23;1.13;;;4.60;99.90;;;;;;5074940;28;20194;-72
2022/01/28 02:41:40;;;;;;;0.60;0.50;;;4.60;99.90;;;;;;5073232;28;20193;-73
2022/01/28 02:44:19;;;;;;;0.60;0.50;;;4.60;99.90;;;;;;5072827;28;20464;-72
2022/01/28 02:49:39;;;;;;;1.00;1.00;;;4.60;99.90;;;;;;5066065;28;20407;-73
2022/01/28 02:52:05;;;;;;;8.17;1.47;;;4.60;99.90;;;;;;5074830;28;20400;-73
2022/01/28 02:54:34;;;;;;;0.60;0.50;;;4.60;99.90;;;;;;5074141;28;20665;-73
2022/01/28 02:57:05;;;;;;;0.60;0.50;;;4.60;99.90;;;;;;5073419;28;20466;-72
2022/01/28 02:59:31;;;;;;;0.60;0.60;;;4.60;99.90;;;;;;5074496;28;20526;-72
2022/01/28 03:01:56;;;;;;;0.60;0.50;;;4.60;99.90;;;;;;5072357;28;20528;-72
2022/01/28 03:07:10;;;;;;;1.07;1.07;;;4.50;99.90;;;;;;5036365;28;20205;-72
2022/01/28 03:12:32;;;;;;;0.60;0.60;;;4.50;99.90;;;;;;5073598;28;20667;-73
2022/01/28 03:15:05;;;;;;;0.60;0.60;;;4.50;99.90;;;;;;5055090;28;20429;-73
2022/01/28 03:18:05;;;;;;;0.60;0.60;;;4.50;99.90;;;;;;5055123;28;20796;-72
2022/01/28 03:22:42;;;;;;;0.60;0.60;;;4.50;99.90;;;;;;5070381;28;20496;-72
2022/01/28 03:25:08;;;;;;;0.60;0.50;;;4.50;99.90;;;;;;5073054;28;20202;-72
2022/01/28 03:30:03;;;;;;;0.60;0.50;;;4.50;99.90;;;;;;5072888;28;20444;-72
2022/01/28 03:32:28;;;;;;;0.60;0.50;;;4.60;99.90;;;;;;5072944;28;20459;-73
2022/01/28 03:34:54;;;;;;;0.80;0.80;;;4.50;99.90;;;;;;5072057;28;20448;-72
2022/01/28 03:37:21;;;;;;;0.70;0.70;;;4.50;99.90;;;;;;5071947;28;20182;-72
2022/01/28 03:39:47;;;;;;;0.60;0.60;;;4.50;99.90;;;;;;5071990;28;20996;-72
2022/01/28 03:42:12;;;;;;;0.60;0.57;;;4.50;99.90;;;;;;5085421;28;20434;-72
2022/01/28 03:44:38;;;;;;;0.60;0.60;;;4.50;99.90;;;;;;5071501;28;20206;-73
2022/01/28 03:47:04;;;;;;;0.60;0.50;;;4.60;99.90;;;;;;5073248;28;20185;-72
2022/01/28 03:49:30;;;;;;;0.60;0.60;;;4.60;99.90;;;;;;5072941;28;20179;-72
2022/01/28 03:51:55;;;;;;;0.63;0.60;;;4.60;99.90;;;;;;5072015;28;20446;-73
2022/01/28 03:54:21;;;;;;;0.60;0.60;;;4.60;99.90;;;;;;5069757;28;20245;-73
2022/01/28 03:56:47;;;;;;;0.63;0.50;;;4.60;99.90;;;;;;5062823;28;20219;-72
2022/01/28 03:59:12;;;;;;;0.60;0.50;;;4.70;99.90;;;;;;5073291;28;20206;-72
2022/01/28 04:01:39;;;;;;;0.60;0.60;;;4.70;99.90;;;;;;5072797;28;20231;-72
2022/01/28 04:05:00;;;;;;;0.60;0.50;;;4.70;99.90;;;;;;5073254;28;20213;-72
2022/01/28 04:12:23;;;;;;;0.80;0.80;;;4.80;99.90;;;;;;5072046;28;20470;-72
2022/01/28 04:17:35;;;;;;;0.60;0.50;;;4.70;99.90;;;;;;5072249;28;20854;-72
2022/01/28 04:20:00;;;;;;;0.60;0.50;;;4.70;99.90;;;;;;5070264;28;20436;-72
2022/01/28 04:22:26;;;;;;;0.60;0.60;;;4.70;99.90;;;;;;5072241;28;20208;-73
2022/01/28 04:24:51;;;;;;;0.63;0.60;;;4.60;99.90;;;;;;5072826;28;20284;-72
2022/01/28 04:27:17;;;;;;;0.60;0.60;;;4.60;99.90;;;;;;5072443;28;20221;-73
2022/01/28 04:29:43;;;;;;;0.60;0.50;;;4.60;99.90;;;;;;5068871;28;20171;-72
2022/01/28 04:32:09;;;;;;;0.60;0.50;;;4.60;99.90;;;;;;5056755;28;20236;-72
2022/01/28 04:34:35;;;;;;;0.60;0.60;;;4.50;99.90;;;;;;5072951;28;20252;-72
2022/01/28 04:37:15;;;;;;;0.60;0.50;;;4.50;99.90;;;;;;5072531;28;20486;-72
2022/01/28 04:47:32;;;;;;;0.60;0.57;;;4.60;99.90;;;;;;5072851;28;20507;-72
2022/01/28 04:52:50;;;;;;;0.60;0.50;;;4.50;99.90;;;;;;5071809;28;20436;-72
2022/01/28 05:00:50;;;;;;;0.60;0.60;;;4.50;99.90;;;;;;5073424;28;20916;-73
2022/01/28 05:27:21;;;;;;;0.60;0.50;;;4.30;99.90;;;;;;5073512;28;20405;-72
2022/01/28 05:29:46;;;;;;;0.60;0.60;;;4.30;99.90;;;;;;5071854;28;20657;-72
2022/01/28 05:32:12;;;;;;;0.60;0.60;;;4.30;99.90;;;;;;5070890;28;20444;-72
2022/01/28 05:34:39;;;;;;;0.60;0.53;;;4.30;99.90;;;;;;5071673;28;20522;-72
2022/01/28 05:37:06;;;;;;;0.60;0.60;;;4.30;99.90;;;;;;5072509;28;20400;-72
2022/01/28 05:39:32;;;;;;;0.60;0.50;;;4.30;99.90;;;;;;5072164;28;20474;-72
2022/01/28 05:41:58;;;;;;;1.03;1.03;;;4.20;99.90;;;;;;5074217;28;21344;-72
2022/01/28 05:44:23;;;;;;;0.60;0.50;;;4.30;99.90;;;;;;5073147;28;20205;-72
2022/01/28 05:46:52;;;;;;;0.60;0.50;;;4.30;99.90;;;;;;5074684;28;20188;-71
2022/01/28 05:49:17;;;;;;;0.60;0.60;;;4.20;99.90;;;;;;5074083;28;20194;-71
2022/01/28 05:51:43;;;;;;;0.60;0.60;;;4.30;99.90;;;;;;5073754;28;20424;-70
2022/01/28 05:54:09;;;;;;;0.60;0.50;;;4.30;99.90;;;;;;5074910;28;20185;-70
2022/01/28 05:56:35;;;;;;;0.60;0.50;;;4.30;99.90;;;;;;5074409;28;20445;-71
2022/01/28 05:59:01;;;;;;;0.60;0.50;;;4.20;99.90;;;;;;5073429;28;20939;-72
2022/01/28 06:01:26;;;;;;;0.60;0.60;;;4.20;99.90;;;;;;5074583;28;20440;-72
2022/01/28 06:03:52;;;;;;;0.60;0.60;;;4.30;99.90;;;;;;5075392;28;20249;-72
2022/01/28 06:06:20;;;;;;;0.60;0.50;;;4.20;99.90;;;;;;5076208;28;20208;-72
2022/01/28 06:08:55;;;;;;;0.60;0.53;;;4.30;99.90;;;;;;5073079;28;20193;-72
2022/01/28 06:11:22;;;;;;;0.60;0.50;;;4.30;99.90;;;;;;5074425;28;20489;-72
2022/01/28 06:13:47;;;;;;;0.60;0.50;;;4.40;99.90;;;;;;5073380;28;20428;-72
2022/01/28 06:16:14;;;;;;;0.60;0.50;;;4.40;99.90;;;;;;5075999;28;20409;-72
2022/01/28 06:18:41;;;;;;;0.60;0.50;;;4.40;99.90;;;;;;5075825;28;20185;-72
2022/01/28 06:21:07;;;;;;;0.70;0.70;;;4.40;99.90;;;;;;5075460;28;20478;-72
2022/01/28 06:23:33;;;;;;;0.60;0.50;;;4.40;99.90;;;;;;5075321;28;20439;-72
2022/01/28 06:25:59;;;;;;;0.80;0.80;;;4.40;99.90;;;;;;5075227;28;20448;-72
2022/01/28 06:28:24;;;;;;;0.60;0.60;;;4.40;99.90;;;;;;5074712;28;20447;-72
2022/01/28 06:30:50;;;;;;;0.60;0.50;;;4.40;99.90;;;;;;5073932;28;20424;-72
2022/01/28 06:33:16;;;;;;;22.93;2.53;;;4.40;99.90;;;;;;5075800;28;20165;-72
2022/01/28 06:35:43;;;;;;;0.60;0.50;;;4.40;99.90;;;;;;5076094;28;20770;-72
2022/01/28 06:38:09;;;;;;;0.60;0.50;;;4.40;99.90;;;;;;5075427;28;20217;-73
2022/01/28 06:40:34;;;;;;;1.17;1.10;;;4.30;99.90;;;;;;5072823;28;20529;-72
2022/01/28 06:43:00;;;;;;;0.60;0.50;;;4.30;99.90;;;;;;5071825;28;20181;-73
2022/01/28 06:45:26;;;;;;;0.60;0.50;;;4.30;99.90;;;;;;5073698;28;20202;-72
2022/01/28 06:47:52;;;;;;;0.60;0.50;;;4.30;99.90;;;;;;5074378;28;20499;-73
2022/01/28 06:50:17;;;;;;;0.60;0.50;;;4.20;99.90;;;;;;5073243;28;20170;-72
2022/01/28 06:52:44;;;;;;;1.93;1.00;;;4.20;99.90;;;;;;5073240;28;20174;-71
2022/01/28 06:55:11;;;;;;;0.60;0.50;;;4.20;99.90;;;;;;5072523;28;20204;-71
2022/01/28 06:57:37;;;;;;;0.63;0.60;;;4.20;99.90;;;;;;5073927;28;20425;-72
2022/01/28 07:00:05;;;;;;;0.60;0.60;;;4.20;99.90;;;;;;5073947;28;20413;-72
2022/01/28 07:02:31;;;;;;;0.60;0.50;;;4.30;99.90;;;;;;5074300;28;20187;-72
2022/01/28 07:04:56;;;;;;;0.60;0.50;;;4.20;99.90;;;;;;5075407;28;20486;-72
2022/01/28 07:07:24;;;;;;;0.60;0.60;;;4.20;99.90;;;;;;5073436;28;20176;-72
2022/01/28 07:09:51;;;;;;;0.70;0.70;;;4.20;99.90;;;;;;5072669;28;20256;-72
2022/01/28 07:12:16;;;;;;;0.60;0.50;;;4.20;99.90;;;;;;5073300;28;20935;-73
2022/01/28 07:14:43;;;;;;;0.60;0.60;;;4.20;99.90;;;;;;5073248;28;20431;-73
2022/01/28 07:17:08;;;;;;;0.60;0.57;;;4.20;99.90;;;;;;5073917;28;20181;-72
2022/01/28 07:19:34;;;;;;;0.73;0.73;;;4.20;99.90;;;;;;5074002;28;20827;-72
2022/01/28 07:21:59;;;;;;;0.60;0.50;;;4.20;99.90;;;;;;5071869;28;20189;-72
2022/01/28 07:24:25;;;;;;;0.60;0.50;;;4.20;99.90;;;;;;5072997;28;20199;-72
2022/01/28 07:26:51;;;;;;;0.60;0.50;;;4.10;99.90;;;;;;5074585;28;20186;-72
2022/01/28 07:29:17;;;;;;;0.60;0.50;;;4.20;99.90;;;;;;5073452;28;20187;-72
2022/01/28 07:31:43;;;;;;;0.60;0.60;;;4.20;99.90;;;;;;5073890;28;20436;-72
2022/01/28 07:34:09;;;;;;;4.20;2.53;;;4.30;99.90;;;;;;5073469;28;20416;-72
2022/01/28 07:36:35;;;;;;;1.40;1.30;;;4.30;99.90;;;;;;5072431;28;20428;-71
2022/01/28 07:39:02;;;;;;;0.60;0.50;;;4.30;99.90;;;;;;5072330;28;20667;-72
2022/01/28 07:41:27;;;;;;;0.70;0.70;;;4.30;99.90;;;;;;5073522;28;20435;-72
2022/01/28 07:43:53;;;;;;;0.60;0.50;;;4.40;99.90;;;;;;5071479;28;20424;-72
2022/01/28 07:46:19;;;;;;;0.60;0.50;;;4.50;99.90;;;;;;5070227;28;20178;-72
2022/01/28 07:48:44;;;;;;;0.70;0.70;;;4.50;99.90;;;;;;5072147;28;20440;-72
2022/01/28 07:51:10;;;;;;;0.77;0.77;;;4.60;99.90;;;;;;5073186;28;20174;-72
2022/01/28 07:53:35;;;;;;;1.17;1.07;;;4.60;99.90;;;;;;5071627;28;20205;-72
2022/01/28 07:56:01;;;;;;;0.60;0.50;;;4.70;99.90;;;;;;5073392;28;20171;-72
2022/01/28 07:58:26;;;;;;;0.80;0.80;;;4.80;99.90;;;;;;5072134;28;20208;-72
2022/01/28 08:00:52;;;;;;;0.70;0.60;;;4.90;99.90;;;;;;5071513;28;20346;-72
2022/01/28 08:03:18;;;;;;;0.60;0.50;;;5.10;99.90;;;;;;5072218;28;20174;-72
2022/01/28 08:05:43;;;;;;;0.60;0.50;;;5.20;99.90;;;;;;5072078;28;20636;-71
2022/01/28 08:08:11;;;;;;;1.43;1.33;;;5.30;99.90;;;;;;5070235;28;20206;-71
2022/01/28 08:10:37;;;;;;;1.10;0.77;;;5.30;99.90;;;;;;5073038;28;20190;-72
2022/01/28 08:13:05;;;;;;;0.87;0.87;;;5.40;99.90;;;;;;5072046;28;20669;-72
2022/01/28 08:15:31;;;;;;;0.60;0.50;;;5.60;99.90;;;;;;5072547;28;20174;-72
2022/01/28 08:17:57;;;;;;;0.70;0.70;;;5.70;99.90;;;;;;5072813;28;20527;-72
2022/01/28 08:20:22;;;;;;;0.67;0.60;;;6.00;99.90;;;;;;5069482;28;20537;-71
2022/01/28 08:22:57;;;;;;;1.90;1.80;;;6.70;99.90;;;;;;5071624;28;20193;-72
2022/01/28 08:25:23;;;;;;;0.67;0.60;;;7.80;99.90;;;;;;5070857;28;20593;-72
2022/01/28 08:27:50;;;;;;;0.70;0.60;;;8.90;99.90;;;;;;5072175;28;20459;-72
2022/01/28 08:30:19;;;;;;;1.53;1.43;;;9.80;99.90;;;;;;5072063;28;20466;-73
2022/01/28 08:32:46;;;;;;;1.00;1.00;;;10.70;99.90;;;;;;5072207;28;20524;-73
2022/01/28 08:35:12;;;;;;;3.03;2.73;;;11.10;99.90;;;;;;5071271;28;20441;-72
2022/01/28 08:37:37;;;;;;;0.97;0.90;;;11.20;99.90;;;;;;5068673;28;20540;-71
2022/01/28 08:40:05;;;;;;;0.80;0.80;;;11.20;99.90;;;;;;5064257;28;20524;-71
2022/01/28 08:42:31;;;;;;;0.70;0.63;;;10.80;99.90;;;;;;5070278;28;20539;-73
2022/01/28 08:44:56;;;;;;;0.87;0.87;;;10.30;99.90;;;;;;5068972;28;20453;-72
2022/01/28 08:47:22;;;;;;;0.70;0.60;;;9.70;99.90;;;;;;5071410;28;20170;-72
2022/01/28 08:49:48;;;;;;;1.33;1.23;;;9.20;99.90;;;;;;5072410;28;20174;-72
2022/01/28 08:52:13;;;;;;;0.80;0.80;;;8.80;99.90;;;;;;5071166;28;20186;-71
2022/01/28 08:54:40;;;;;;;1.23;1.13;;;8.60;99.90;;;;;;5071768;28;20725;-73
2022/01/28 08:57:06;;;;;;;0.80;0.70;;;8.40;99.90;;;;;;5072917;28;20749;-73
2022/01/28 08:59:31;;;;;;;1.00;0.80;;;8.20;99.90;;;;;;5072532;28;20456;-72
2022/01/28 09:01:57;;;;;;;1.20;0.93;;;8.40;99.90;;;;;;5069681;28;20193;-72
2022/01/28 09:04:22;;;;;;;0.67;0.60;;;8.40;99.90;;;;;;5071221;28;20208;-72
2022/01/28 09:06:48;;;;;;;3.73;2.10;;;8.20;99.90;;;;;;5071274;28;20174;-72
2022/01/28 09:09:13;;;;;;;2.13;2.03;;;8.30;99.90;;;;;;5071134;28;20214;-72
2022/01/28 09:12:04;;;;;;;0.67;0.60;;;8.60;99.90;;;;;;5070930;28;20182;-72
2022/01/28 09:14:30;;;;;;;1.80;1.70;;;9.20;99.90;;;;;;5074587;28;20315;-72
2022/01/28 09:16:56;;;;;;;1.27;0.77;;;9.60;99.90;;;;;;5075195;28;20503;-72
2022/01/28 09:19:22;;;;;;;1.73;1.53;;;9.60;99.90;;;;;;5074852;28;20771;-73
2022/01/28 09:21:48;;;;;;;1.00;0.90;;;10.00;99.90;;;;;;5074564;28;20486;-72
2022/01/28 09:24:13;;;;;;;1.63;1.53;;;10.00;99.90;;;;;;5075285;28;20243;-72
2022/01/28 09:26:39;;;;;;;0.77;0.77;;;9.90;99.90;;;;;;5075699;28;20677;-72
2022/01/28 09:29:05;;;;;;;1.43;1.33;;;9.50;99.90;;;;;;5074144;28;20277;-71
2022/01/28 09:31:30;;;;;;;1.03;0.83;;;9.30;99.90;;;;;;5075227;28;20546;-72
2022/01/28 09:33:56;;;;;;;1.60;1.40;;;9.10;99.90;;;;;;5074669;28;20174;-72
2022/01/28 09:36:22;;;;;;;2.60;0.90;;;10.00;99.90;;;;;;5078018;28;20538;-72
2022/01/28 09:38:48;;;;;;;1.00;0.90;;;11.30;99.90;;;;;;5076974;28;20190;-72
2022/01/28 09:41:14;;;;;;;1.03;0.97;;;12.70;99.90;;;;;;5075095;28;20527;-69
2022/01/28 09:43:43;;;;;;;1.37;0.93;;;13.60;99.90;;;;;;5072748;28;20511;-72
2022/01/28 09:46:09;;;;;;;4.10;1.47;;;14.10;99.90;;;;;;5077873;28;20982;-71
2022/01/28 09:48:34;;;;;;;2.27;1.23;;;14.40;99.90;;;;;;5077051;28;20451;-71
2022/01/28 09:51:02;;;;;;;1.17;1.07;;;15.00;99.90;;;;;;5077113;28;20177;-72
2022/01/28 09:53:28;;;;;;;1.80;1.37;;;15.70;99.90;;;;;;5076783;28;20179;-71
2022/01/28 09:55:54;;;;;;;0.70;0.70;;;16.30;99.90;;;;;;5075440;28;20482;-71
2022/01/28 09:58:20;;;;;;;3.50;1.73;;;16.80;99.90;;;;;;5076302;28;20952;-71
2022/01/28 10:00:45;;;;;;;1.13;0.97;;;17.10;99.90;;;;;;5076817;28;20432;-71
2022/01/28 10:03:16;;;;;;;0.90;0.70;;;17.90;97.90;;;;;;5076522;28;20296;-71
2022/01/28 10:05:51;;;;;;;2.50;1.43;;;18.30;96.90;;;;;;5077048;28;20216;-71
2022/01/28 10:08:25;;;;;;;1.10;0.80;;;18.60;92.80;;;;;;5075018;28;20456;-71
2022/01/28 10:11:18;;;;;;;1.30;1.20;;;18.10;91.50;;;;;;5067224;28;20456;-71
2022/01/28 10:13:52;;;;;;;1.13;1.03;;;17.70;90.60;;;;;;5074665;28;20440;-70
2022/01/28 10:16:23;;;;;;;8.47;2.40;;;17.50;92.20;;;;;;5074420;28;20424;-70
2022/01/28 10:18:58;;;;;;;3.77;1.47;;;17.70;91.90;;;;;;5073202;28;22490;-71
2022/01/28 10:21:37;;;;;;;5.03;1.33;;;16.90;91.30;;;;;;5073602;28;20962;-71
2022/01/28 10:24:18;;;;;;;1.53;1.43;;;16.30;92.10;;;;;;5073042;28;20448;-71
2022/01/28 10:26:52;;;;;;;0.90;0.80;;;16.50;94.00;;;;;;5075968;28;20440;-72
2022/01/28 10:29:23;;;;;;;1.57;1.40;;;16.60;93.60;;;;;;5074944;28;20502;-71
2022/01/28 10:31:50;;;;;;;1.40;1.30;;;17.60;94.10;;;;;;5076423;28;20452;-71
2022/01/28 10:34:22;;;;;;;1.87;1.77;;;18.20;91.10;;;;;;5076543;28;20432;-72
2022/01/28 10:36:48;;;;;;;1.13;1.03;;;18.40;90.40;;;;;;5075809;28;20436;-71
2022/01/28 10:39:20;;;;;;;1.73;1.50;;;19.00;87.30;;;;;;5078414;28;20471;-72
2022/01/28 10:41:55;;;;;;;1.83;1.63;;;19.50;85.00;;;;;;5082906;28;20447;-71
2022/01/28 10:44:21;;;;;;;2.03;1.53;;;19.40;81.30;;;;;;5076986;28;20853;-72
2022/01/28 10:46:55;;;;;;;1.63;1.53;;;19.60;80.30;;;;;;5073476;28;20467;-72
2022/01/28 10:49:27;;;;;;;1.60;1.20;;;19.90;77.60;;;;;;5074952;28;20194;-71
2022/01/28 10:51:52;;;;;;;2.17;1.40;;;20.50;76.50;;;;;;5076152;28;20424;-72
2022/01/28 10:54:20;;;;;;;0.70;0.60;;;21.30;75.00;;;;;;5072262;28;20437;-71
2022/01/28 10:56:50;;;;;;;1.30;1.10;;;21.30;71.30;;;;;;5076825;28;20628;-71
2022/01/28 10:59:18;;;;;;;1.83;1.00;;;20.40;71.20;;;;;;5077882;28;20452;-71
2022/01/28 11:01:45;;;;;;;1.27;1.17;;;20.00;72.60;;;;;;5076611;28;20522;-71
2022/01/28 11:04:12;;;;;;;0.90;0.90;;;19.60;73.10;;;;;;5076114;28;20436;-70
2022/01/28 11:06:39;;;;;;;3.80;1.97;;;20.40;73.10;;;;;;5075220;28;20428;-71
2022/01/28 11:09:07;;;;;;;1.37;1.27;;;19.60;71.60;;;;;;5074059;28;20463;-71
2022/01/28 11:11:32;;;;;;;2.07;1.83;;;18.70;75.00;;;;;;5073807;28;20929;-72
2022/01/28 11:13:58;;;;;;;1.50;1.40;;;19.40;76.70;;;;;;5075743;28;20440;-72
2022/01/28 11:16:25;;;;;;;1.20;1.10;;;19.90;75.50;;;;;;5071152;28;20187;-72
2022/01/28 11:18:51;;;;;;;2.50;2.30;;;20.10;72.40;;;;;;5074655;28;20198;-72
2022/01/28 11:21:20;;;;;;;2.70;1.13;;;20.30;71.60;;;;;;5073949;28;20574;-72
2022/01/28 11:24:07;;;;;;;1.23;1.13;;;21.30;69.20;;;;;;5069146;28;20445;-72
2022/01/28 11:26:45;;;;;;;1.13;1.03;;;20.30;67.30;;;;;;5071324;28;20788;-72
2022/01/28 11:29:20;;;;;;;1.77;1.67;;;19.30;69.40;;;;;;5070499;28;20452;-72
2022/01/28 11:31:48;;;;;;;1.90;1.80;;;18.30;71.60;;;;;;5072281;28;20416;-72
2022/01/28 11:34:21;;;;;;;0.80;0.80;;;17.10;74.00;;;;;;5070565;28;20444;-71
2022/01/28 11:36:47;;;;;;;2.50;2.13;;;16.20;77.50;;;;;;5069053;28;20826;-72
2022/01/28 11:39:32;;;;;;;1.07;0.97;;;15.40;77.70;;;;;;5066084;28;20685;-72
2022/01/28 11:42:18;;;;;;;1.70;1.33;;;14.40;83.70;;;;;;5067661;28;20182;-71
2022/01/28 11:44:44;;;;;;;0.70;0.70;;;13.40;90.80;;;;;;5068899;28;20452;-72
2022/01/28 11:47:19;;;;;;;1.23;1.13;;;12.70;95.90;;;;;;5068487;28;20444;-72
2022/01/28 11:50:07;;;;;;;0.87;0.87;;;12.10;99.90;;;;;;5070227;28;20212;-71
2022/01/28 11:52:45;;;;;;;0.73;0.73;;;11.80;99.90;;;;;;5071448;28;20565;-72
2022/01/28 11:55:14;;;;;;;1.00;0.90;;;11.70;99.90;;;;;;5069457;28;20428;-71
2022/01/28 11:57:54;;;;;;;1.67;0.90;;;11.60;99.90;;;;;;5068710;28;20499;-72
2022/01/28 12:00:36;;;;;;;4.50;2.20;;;12.30;99.90;;;;;;5072120;28;20482;-72
2022/01/28 12:03:30;;;;;;;0.80;0.80;;;12.70;99.90;;;;;;5069049;28;20424;-72
2022/01/28 12:06:19;;;;;;;0.80;0.70;;;13.60;99.90;;;;;;5081120;28;20506;-72
2022/01/28 12:08:46;;;;;;;0.70;0.70;;;14.80;97.40;;;;;;5071201;28;20482;-72
2022/01/28 12:11:13;;;;;;;0.80;0.70;;;14.30;93.90;;;;;;5067753;28;20520;-71
2022/01/28 12:14:03;;;;;;;0.70;0.60;;;14.00;95.40;;;;;;5066219;28;20424;-72
2022/01/28 12:16:31;;;;;;;0.80;0.80;;;15.60;96.30;;;;;;5067130;28;20420;-72
2022/01/28 12:18:58;;;;;;;0.70;0.70;;;16.20;91.10;;;;;;5070043;28;20448;-72
2022/01/28 12:21:28;;;;;;;0.70;0.60;;;15.60;90.00;;;;;;5068546;28;20432;-72
2022/01/28 12:24:15;;;;;;;0.70;0.70;;;15.20;91.70;;;;;;5068855;28;20945;-71
2022/01/28 12:26:55;;;;;;;0.80;0.80;;;15.10;91.80;;;;;;5068506;28;20964;-72
2022/01/28 12:29:31;;;;;;;1.30;1.23;;;15.60;91.60;;;;;;5071332;28;20435;-72
2022/01/28 12:31:58;;;;;;;0.70;0.60;;;15.60;90.00;;;;;;5071457;28;20507;-72
2022/01/28 12:34:24;;;;;;;0.70;0.70;;;15.00;89.20;;;;;;5070794;28;20412;-72
2022/01/28 12:36:49;;;;;;;0.70;0.60;;;14.20;90.70;;;;;;5074088;28;21274;-72
2022/01/28 12:39:21;;;;;;;0.70;0.60;;;14.40;91.60;;;;;;5072658;28;20554;-72
2022/01/28 12:42:02;;;;;;;2.57;1.40;;;14.60;92.30;;;;;;5072065;28;20201;-72
2022/01/28 12:44:31;;;;;;;0.70;0.60;;;15.80;91.10;;;;;;5073422;28;20976;-72
2022/01/28 12:46:59;;;;;;;0.80;0.60;;;17.60;87.00;;;;;;5074429;28;20424;-71
2022/01/28 12:49:26;;;;;;;0.70;0.60;;;18.50;79.00;;;;;;5073848;28;20475;-72
2022/01/28 12:51:55;;;;;;;0.70;0.67;;;19.20;71.90;;;;;;5074820;28;20432;-71
2022/01/28 12:54:37;;;;;;;1.30;1.20;;;20.10;69.70;;;;;;5073466;28;20459;-71
2022/01/28 12:57:04;;;;;;;0.80;0.70;;;20.20;67.70;;;;;;5073891;28;20443;-71
2022/01/28 12:59:30;;;;;;;2.60;1.23;;;21.00;66.60;;;;;;5074676;28;20483;-72
2022/01/28 13:01:57;;;;;;;3.80;0.83;;;21.70;64.40;;;;;;5073535;28;20448;-71
2022/01/28 13:04:35;;;;;;;0.70;0.70;;;21.60;60.60;;;;;;5072934;28;20217;-71
2022/01/28 13:08:24;;;;;;;0.80;0.70;;;20.90;59.90;;;;;;5073490;28;20486;-71
2022/01/28 13:09:49;;;;;;;1.50;1.27;;;19.60;62.00;;;;;;5075008;28;20421;-71
2022/01/28 13:12:29;;;;;;;1.30;0.90;;;18.40;64.70;;;;;;5075152;28;20428;-71
2022/01/28 13:15:02;;;;;;;3.73;0.90;;;17.30;65.90;;;;;;5072847;28;20443;-71
2022/01/28 13:17:28;;;;;;;19.03;2.03;;;16.30;68.70;;;;;;5073531;28;20428;-71
2022/01/28 13:19:59;;;;;;;0.77;0.70;;;15.40;71.90;;;;;;5069049;28;20445;-71
2022/01/28 13:22:27;;;;;;;0.70;0.60;;;14.60;76.50;;;;;;5053182;28;20612;-72
2022/01/28 13:24:53;;;;;;;0.70;0.60;;;13.70;80.80;;;;;;5062923;28;20456;-71
2022/01/28 13:27:21;;;;;;;1.10;1.00;;;13.30;85.70;;;;;;5072248;28;20424;-71
2022/01/28 13:29:51;;;;;;;0.80;0.80;;;14.60;90.10;;;;;;5073519;28;20443;-71
2022/01/28 13:32:18;;;;;;;1.10;1.00;;;16.10;82.20;;;;;;5072577;28;20400;-71
2022/01/28 13:34:54;;;;;;;0.70;0.60;;;16.20;81.40;;;;;;5071145;28;20521;-70
2022/01/28 13:37:41;;;;;;;1.90;1.80;;;16.60;78.50;;;;;;5080524;28;20424;-71
2022/01/28 13:40:17;;;;;;;0.70;0.60;;;15.70;77.00;;;;;;5066657;28;20561;-71
2022/01/28 13:43:10;;;;;;;0.70;0.60;;;14.60;80.20;;;;;;5068261;28;20432;-71
2022/01/28 13:45:38;;;;;;;1.53;1.43;;;13.60;84.50;;;;;;5068356;28;20514;-71
2022/01/28 13:48:12;;;;;;;0.97;0.80;;;12.80;89.60;;;;;;5086646;28;20486;-70
2022/01/28 13:50:41;;;;;;;2.90;2.20;;;13.00;92.60;;;;;;5070782;28;20416;-71
2022/01/28 13:53:22;;;;;;;0.80;0.70;;;13.10;93.70;;;;;;5068581;28;20908;-71
2022/01/28 13:55:51;;;;;;;0.70;0.70;;;12.80;95.10;;;;;;5065751;28;20456;-72
2022/01/28 13:58:17;;;;;;;0.90;0.90;;;12.60;97.60;;;;;;5066858;28;20896;-70
2022/01/28 14:00:46;;;;;;;0.70;0.60;;;13.00;99.60;;;;;;5068465;28;20427;-71
2022/01/28 14:03:16;;;;;;;0.70;0.60;;;13.20;99.40;;;;;;5070092;28;20460;-70
2022/01/28 14:05:58;;;;;;;1.90;1.37;;;13.70;97.30;;;;;;5071061;28;20463;-70
2022/01/28 14:08:41;;;;;;;1.30;1.20;;;13.40;96.40;;;;;;5071539;28;20444;-71
2022/01/28 14:11:26;;;;;;;0.70;0.70;;;13.70;95.60;;;;;;5072293;28;20456;-70
2022/01/28 14:14:25;;;;;;;1.67;1.10;;;14.30;95.30;;;;;;5074258;28;20925;-70
2022/01/28 14:16:55;;;;;;;0.80;0.80;;;14.50;92.90;;;;;;5066329;28;20466;-71
2022/01/28 14:19:26;;;;;;;1.00;0.90;;;15.10;91.80;;;;;;5076962;28;20509;-71
2022/01/28 14:21:52;;;;;;;0.80;0.80;;;15.90;90.30;;;;;;5076481;28;20408;-71
2022/01/28 14:24:21;;;;;;;0.70;0.60;;;16.70;87.60;;;;;;5087554;28;20417;-71
2022/01/28 14:32:11;;;;;;;0.80;0.70;;;18.10;74.90;;;;;;5076286;28;21165;-72
2022/01/28 14:34:38;;;;;;;0.70;0.60;;;18.30;74.20;;;;;;5078457;28;20420;-73
2022/01/28 14:37:05;;;;;;;1.63;1.50;;;18.50;72.80;;;;;;5092557;28;20510;-73
2022/01/28 14:39:32;;;;;;;1.10;0.97;;;18.80;70.90;;;;;;5075707;28;20477;-72